createdAt,value
2022-08-25T00:00:51.533Z,9.57
2022-08-25T00:06:14.790Z,6.90
2022-08-25T00:11:39.314Z,11.57
2022-08-25T00:17:02.027Z,12.77
2022-08-25T00:22:24.715Z,6.63
2022-08-25T00:27:48.228Z,9.00
2022-08-25T00:33:11.320Z,10.23
2022-08-25T00:38:33.788Z,6.38
2022-08-25T00:43:59.459Z,9.02
2022-08-25T00:49:31.925Z,10.95
2022-08-25T00:55:07.964Z,7.78
2022-08-25T01:00:37.851Z,9.00
2022-08-25T01:06:03.304Z,8.30
2022-08-25T01:11:25.586Z,8.80
2022-08-25T01:16:51.206Z,7.68
2022-08-25T01:22:17.458Z,9.23
2022-08-25T01:27:39.758Z,8.75
2022-08-25T01:33:07.701Z,6.78
2022-08-25T01:38:30.337Z,8.43
2022-08-25T01:43:53.016Z,9.82
2022-08-25T01:49:15.367Z,6.65
2022-08-25T01:54:38.084Z,6.22
2022-08-25T02:00:01.799Z,12.93
2022-08-25T02:05:33.282Z,7.40
2022-08-25T02:10:55.853Z,8.75
2022-08-25T02:16:24.747Z,11.57
2022-08-25T02:21:47.415Z,10.05
2022-08-25T02:27:10.810Z,7.38
2022-08-25T02:32:33.946Z,9.13
2022-08-25T02:37:56.503Z,7.75
2022-08-25T02:43:18.548Z,7.80
2022-08-25T02:48:41.655Z,12.10
2022-08-25T02:54:06.009Z,8.32
2022-08-25T02:59:28.868Z,11.73
2022-08-25T03:04:52.319Z,7.68
2022-08-25T03:10:19.799Z,7.38
2022-08-25T03:15:42.627Z,9.55
2022-08-25T03:21:05.267Z,8.50
2022-08-25T03:26:46.315Z,7.55
2022-08-25T03:32:09.294Z,8.68
2022-08-25T03:37:32.161Z,6.97
2022-08-25T03:42:56.944Z,13.45
2022-08-25T03:48:19.491Z,13.00
2022-08-25T03:53:41.995Z,12.30
2022-08-25T03:59:04.558Z,11.30
2022-08-25T04:04:27.084Z,7.90
2022-08-25T04:09:49.235Z,8.32
2022-08-25T04:15:11.917Z,8.70
2022-08-25T04:20:34.381Z,9.40
2022-08-25T04:25:56.789Z,14.43
2022-08-25T04:31:22.051Z,8.60
2022-08-25T04:36:44.880Z,9.00
2022-08-25T04:42:14.714Z,11.45
2022-08-25T04:47:39.018Z,11.07
2022-08-25T04:53:01.550Z,8.60
2022-08-25T04:58:23.758Z,12.60
2022-08-25T05:03:47.603Z,15.90
2022-08-25T05:09:10.847Z,18.67
2022-08-25T05:14:34.603Z,18.25
2022-08-25T05:19:57.001Z,18.70
2022-08-25T05:25:19.443Z,27.23
2022-08-25T05:30:44.445Z,23.98
2022-08-25T05:36:07.871Z,24.02
2022-08-25T05:41:31.201Z,19.77
2022-08-25T05:46:53.879Z,29.38
2022-08-25T05:52:20.151Z,24.10
2022-08-25T05:57:42.846Z,28.15
2022-08-25T06:03:05.153Z,27.63
2022-08-25T06:08:32.341Z,25.05
2022-08-25T06:13:55.427Z,33.80
2022-08-25T06:19:18.438Z,34.65
2022-08-25T06:24:41.043Z,27.38
2022-08-25T06:30:07.601Z,32.55
2022-08-25T06:35:30.715Z,29.30
2022-08-25T06:40:53.439Z,25.70
2022-08-25T06:46:19.981Z,18.92
2022-08-25T06:51:42.508Z,29.17
2022-08-25T06:57:06.126Z,24.95
2022-08-25T07:02:28.553Z,24.77
2022-08-25T07:07:52.135Z,20.25
2022-08-25T07:13:14.442Z,19.23
2022-08-25T07:18:37.190Z,24.40
2022-08-25T07:24:01.807Z,19.98
2022-08-25T07:29:31.885Z,16.55
2022-08-25T07:35:13.979Z,22.02
2022-08-25T07:40:42.572Z,19.42
2022-08-25T07:46:06.783Z,16.08
2022-08-25T07:51:29.241Z,13.63
2022-08-25T07:56:51.544Z,14.68
2022-08-25T08:02:18.832Z,13.40
2022-08-25T08:07:43.751Z,13.45
2022-08-25T08:13:07.962Z,14.48
2022-08-25T08:18:30.535Z,14.45
2022-08-25T08:23:58.689Z,14.30
2022-08-25T08:29:22.860Z,14.10
2022-08-25T08:34:46.238Z,11.02
2022-08-25T08:40:09.726Z,13.23
2022-08-25T08:45:50.396Z,15.30
2022-08-25T08:51:26.077Z,12.88
2022-08-25T08:57:11.812Z,13.73
2022-08-25T09:02:51.342Z,12.60
2022-08-25T09:08:20.179Z,16.00
2022-08-25T09:14:04.499Z,17.65
2022-08-25T09:19:55.035Z,14.30
2022-08-25T09:25:52.764Z,15.77
2022-08-25T09:31:26.450Z,16.63
2022-08-25T09:36:53.516Z,10.35
2022-08-25T09:42:21.983Z,15.27
2022-08-25T09:47:46.623Z,15.43
2022-08-25T09:53:17.196Z,9.57
2022-08-25T09:58:41.719Z,16.65
2022-08-25T10:04:06.262Z,13.52
2022-08-25T10:09:43.555Z,9.57
2022-08-25T10:15:29.383Z,10.38
2022-08-25T10:21:07.758Z,9.40
2022-08-25T10:26:57.062Z,10.05
2022-08-25T10:32:37.838Z,11.27
2022-08-25T10:38:36.379Z,10.98
2022-08-25T10:44:36.767Z,10.05
2022-08-25T10:50:32.969Z,14.48
2022-08-25T10:55:55.336Z,10.20
2022-08-25T11:01:42.894Z,9.85
2022-08-25T11:07:15.823Z,9.35
2022-08-25T11:12:50.472Z,11.45
2022-08-25T11:18:15.173Z,11.02
2022-08-25T11:24:09.244Z,14.23
2022-08-25T11:29:36.864Z,11.13
2022-08-25T11:35:05.602Z,15.65
2022-08-25T11:40:46.538Z,11.48
2022-08-25T11:46:27.796Z,11.75
2022-08-25T11:51:51.756Z,12.88
2022-08-25T11:57:17.006Z,10.57
2022-08-25T12:02:47.576Z,7.95
2022-08-25T12:08:28.067Z,21.85
2022-08-25T12:13:51.859Z,12.38
2022-08-25T12:19:36.976Z,14.70
2022-08-25T12:25:22.007Z,9.90
2022-08-25T12:30:56.657Z,15.50
2022-08-25T12:36:34.412Z,8.90
2022-08-25T12:42:06.796Z,13.68
2022-08-25T12:47:34.140Z,14.07
2022-08-25T12:53:02.651Z,9.98
2022-08-25T12:58:56.623Z,15.15
2022-08-25T13:04:35.518Z,14.68
2022-08-25T13:10:17.827Z,14.95
2022-08-25T13:15:47.055Z,12.73
2022-08-25T13:21:24.334Z,9.65
2022-08-25T13:26:50.975Z,13.68
2022-08-25T13:32:14.821Z,15.43
2022-08-25T13:37:37.359Z,17.17
2022-08-25T13:43:05.587Z,9.85
2022-08-25T13:48:32.503Z,11.50
2022-08-25T13:53:59.093Z,16.75
2022-08-25T13:59:40.086Z,11.50
2022-08-25T14:05:03.315Z,12.05
2022-08-25T14:10:44.539Z,10.10
2022-08-25T14:16:14.280Z,12.25
2022-08-25T14:21:36.987Z,13.85
2022-08-25T14:27:04.687Z,11.13
2022-08-25T14:32:27.304Z,10.02
2022-08-25T14:37:49.691Z,13.88
2022-08-25T14:43:12.321Z,18.88
2022-08-25T14:48:40.962Z,14.02
2022-08-25T14:54:09.498Z,15.18
2022-08-25T14:59:33.530Z,14.50
2022-08-25T15:05:00.133Z,17.77
2022-08-25T15:10:24.081Z,15.80
2022-08-25T15:15:52.883Z,16.90
2022-08-25T15:21:15.436Z,13.32
2022-08-25T15:27:11.119Z,13.07
2022-08-25T15:32:33.932Z,11.65
2022-08-25T15:37:56.607Z,13.93
2022-08-25T15:43:19.081Z,18.35
2022-08-25T15:48:42.464Z,15.40
2022-08-25T15:54:05.595Z,20.80
2022-08-25T15:59:29.066Z,23.48
2022-08-25T16:04:53.076Z,8.48
2022-08-25T16:10:15.832Z,14.77
2022-08-25T16:15:38.909Z,16.75
2022-08-25T16:21:01.330Z,14.45
2022-08-25T16:26:24.368Z,13.18
2022-08-25T16:31:53.527Z,15.98
2022-08-25T16:37:17.673Z,19.25
2022-08-25T16:42:39.814Z,12.90
2022-08-25T16:48:03.680Z,17.35
2022-08-25T16:53:44.939Z,16.02
2022-08-25T16:59:12.278Z,15.13
2022-08-25T17:04:35.163Z,17.00
2022-08-25T17:09:59.997Z,12.43
2022-08-25T17:15:23.977Z,14.63
2022-08-25T17:20:46.492Z,19.75
2022-08-25T17:26:14.721Z,14.32
2022-08-25T17:31:40.217Z,18.02
2022-08-25T17:37:03.775Z,14.95
2022-08-25T17:42:30.405Z,18.88
2022-08-25T17:47:53.639Z,16.40
2022-08-25T17:53:17.409Z,13.75
2022-08-25T17:58:41.394Z,17.55
2022-08-25T18:04:06.370Z,14.75
2022-08-25T18:09:39.691Z,20.85
2022-08-25T18:15:02.817Z,12.27
2022-08-25T18:20:25.851Z,16.00
2022-08-25T18:25:50.099Z,13.43
2022-08-25T18:31:13.230Z,20.02
2022-08-25T18:36:38.573Z,19.38
2022-08-25T18:42:02.256Z,17.48
2022-08-25T18:47:25.127Z,15.90
2022-08-25T18:52:47.907Z,17.50
2022-08-25T18:58:11.452Z,16.75
2022-08-25T19:03:34.527Z,17.17
2022-08-25T19:08:57.170Z,14.73
2022-08-25T19:14:21.379Z,16.17
2022-08-25T19:19:43.567Z,19.63
2022-08-25T19:25:07.448Z,18.80
2022-08-25T19:30:30.526Z,16.17
2022-08-25T19:35:55.073Z,15.20
2022-08-25T19:41:19.634Z,17.52
2022-08-25T19:46:44.889Z,16.95
2022-08-25T19:52:10.497Z,14.65
2022-08-25T19:57:42.310Z,20.20
2022-08-25T20:03:07.671Z,17.20
2022-08-25T20:08:30.344Z,20.95
2022-08-25T20:13:53.733Z,17.15
2022-08-25T20:19:16.165Z,21.40
2022-08-25T20:24:56.086Z,20.38
2022-08-25T20:30:27.096Z,21.00
2022-08-25T20:35:49.851Z,23.23
2022-08-25T20:41:15.614Z,26.10
2022-08-25T20:46:38.190Z,17.35
2022-08-25T20:52:04.549Z,16.33
2022-08-25T20:57:26.751Z,25.63
2022-08-25T21:02:50.960Z,17.05
2022-08-25T21:08:13.574Z,16.25
2022-08-25T21:13:36.227Z,25.25
2022-08-25T21:19:00.540Z,22.08
2022-08-25T21:24:24.322Z,18.08
2022-08-25T21:29:54.735Z,20.58
2022-08-25T21:35:17.667Z,16.67
2022-08-25T21:40:44.889Z,19.80
2022-08-25T21:46:12.246Z,19.70
2022-08-25T21:51:43.397Z,20.50
2022-08-25T21:57:06.616Z,19.73
2022-08-25T22:02:28.786Z,17.25
2022-08-25T22:07:51.137Z,20.23
2022-08-25T22:13:14.759Z,19.52
2022-08-25T22:18:37.043Z,23.20
2022-08-25T22:24:00.855Z,16.77
2022-08-25T22:29:25.343Z,17.42
2022-08-25T22:34:48.547Z,17.30
2022-08-25T22:40:12.026Z,20.00
2022-08-25T22:45:35.889Z,19.77
2022-08-25T22:51:10.106Z,16.67
2022-08-25T22:56:37.776Z,16.35
2022-08-25T23:02:00.711Z,21.23
2022-08-25T23:07:24.086Z,14.40
2022-08-25T23:12:46.895Z,16.30
2022-08-25T23:18:09.411Z,16.35
2022-08-25T23:23:36.251Z,17.38
2022-08-25T23:28:59.859Z,13.85
2022-08-25T23:34:23.257Z,13.68
2022-08-25T23:39:46.367Z,17.88
2022-08-25T23:45:13.345Z,17.13
2022-08-25T23:50:44.900Z,16.40
2022-08-25T23:56:07.679Z,18.88
